Time;durP1;ratioP1;P1;durP2;ratioP2;P2;SDS_P1;SDS_P2;PMS_P1;PMS_P2;Temp;Humidity;BMP_temperature;BMP_pressure;BME280_temperature;BME280_humidity;BME280_pressure;Samples;Min_cycle;Max_cycle;Signal;HPM_P1;HPM_P2
2022/06/14 00:02:03;;;;;;;2.78;1.08;;;16.40;97.90;;;;;;4095895;28;20520;-69
2022/06/14 00:04:03;;;;;;;2.33;0.88;;;16.30;97.90;;;;;;4096042;28;20047;-69
2022/06/14 00:06:32;;;;;;;4.45;1.08;;;16.30;97.90;;;;;;4096036;28;20134;-69
2022/06/14 00:08:33;;;;;;;2.30;1.20;;;16.30;98.20;;;;;;4091872;28;20039;-69
2022/06/14 00:10:34;;;;;;;2.63;1.02;;;16.30;98.60;;;;;;4095744;28;20039;-69
2022/06/14 00:12:34;;;;;;;1.80;0.60;;;16.20;98.40;;;;;;4098957;28;20035;-69
2022/06/14 00:14:35;;;;;;;3.80;1.20;;;16.20;99.10;;;;;;4099345;28;20078;-69
2022/06/14 00:16:37;;;;;;;2.67;1.10;;;16.20;99.10;;;;;;4096354;28;20398;-69
2022/06/14 00:18:38;;;;;;;3.17;1.02;;;16.20;99.50;;;;;;4094539;28;20043;-68
2022/06/14 00:20:39;;;;;;;1.73;0.85;;;16.10;98.70;;;;;;4093987;28;20039;-69
2022/06/14 00:22:40;;;;;;;3.50;1.02;;;16.10;98.50;;;;;;4096213;28;20035;-69
2022/06/14 00:24:41;;;;;;;5.20;1.40;;;16.00;98.60;;;;;;4099646;28;20050;-69
2022/06/14 00:26:41;;;;;;;2.38;1.00;;;16.00;98.50;;;;;;4095508;28;20035;-69
2022/06/14 00:28:44;;;;;;;3.10;1.05;;;16.00;98.70;;;;;;4095885;28;20073;-69
2022/06/14 00:30:48;;;;;;;4.40;1.13;;;15.90;98.80;;;;;;4095278;28;20035;-70
2022/06/14 00:32:49;;;;;;;2.58;1.00;;;15.90;98.50;;;;;;4096022;28;20031;-69
2022/06/14 00:34:50;;;;;;;1.92;1.10;;;15.80;98.40;;;;;;4096524;28;20090;-70
2022/06/14 00:36:53;;;;;;;3.63;1.27;;;15.80;98.60;;;;;;4095718;28;20031;-70
2022/06/14 00:38:56;;;;;;;3.00;1.10;;;15.80;98.50;;;;;;4095466;28;20070;-69
2022/06/14 00:40:59;;;;;;;3.10;1.20;;;15.70;98.60;;;;;;4095303;28;22231;-69
2022/06/14 00:43:02;;;;;;;4.70;1.90;;;15.70;98.90;;;;;;4097627;28;20027;-69
2022/06/14 00:45:12;;;;;;;3.33;1.25;;;15.60;98.90;;;;;;4096308;28;20090;-71
2022/06/14 00:47:15;;;;;;;3.03;1.20;;;15.60;99.10;;;;;;4095622;28;20031;-69
2022/06/14 00:49:27;;;;;;;3.33;1.50;;;15.60;98.90;;;;;;4095781;28;20046;-70
2022/06/14 00:51:32;;;;;;;4.00;1.27;;;15.50;99.10;;;;;;4096997;28;20490;-69
2022/06/14 00:53:42;;;;;;;1.98;1.10;;;15.50;99.30;;;;;;4093386;28;20070;-69
2022/06/14 00:55:49;;;;;;;3.00;1.25;;;15.50;99.70;;;;;;4095655;28;20399;-69
2022/06/14 00:57:54;;;;;;;2.20;1.20;;;15.50;99.90;;;;;;4094855;28;20434;-69
2022/06/14 01:00:11;;;;;;;1.52;1.00;;;15.50;99.90;;;;;;4094632;28;20395;-69
2022/06/14 01:02:20;;;;;;;2.20;1.27;;;15.50;99.90;;;;;;4095708;28;20498;-69
2022/06/14 01:04:25;;;;;;;5.13;1.80;;;15.50;99.90;;;;;;4098677;28;20570;-69
2022/06/14 01:06:52;;;;;;;7.10;1.30;;;15.50;99.90;;;;;;4095683;28;20402;-69
2022/06/14 01:08:58;;;;;;;5.82;1.55;;;15.50;99.90;;;;;;4094132;28;20372;-69
2022/06/14 01:10:59;;;;;;;3.97;1.27;;;15.60;99.70;;;;;;4092708;28;20035;-69
2022/06/14 01:13:03;;;;;;;3.25;1.40;;;15.60;99.90;;;;;;4095512;28;20035;-70
2022/06/14 01:15:16;;;;;;;3.25;1.00;;;15.60;99.90;;;;;;4095343;28;20038;-71
2022/06/14 01:17:17;;;;;;;3.55;1.30;;;15.60;99.90;;;;;;4092441;28;20046;-69
2022/06/14 01:19:21;;;;;;;3.80;1.27;;;15.60;99.90;;;;;;4097065;28;20057;-69
2022/06/14 01:21:24;;;;;;;7.70;1.52;;;15.50;99.90;;;;;;4095122;28;20039;-69
2022/06/14 01:23:25;;;;;;;4.30;1.65;;;15.50;99.90;;;;;;4095836;28;20047;-69
2022/06/14 01:25:30;;;;;;;2.65;1.38;;;15.50;99.90;;;;;;4095543;28;20045;-70
2022/06/14 01:27:35;;;;;;;2.63;1.27;;;15.50;99.90;;;;;;4095234;28;20035;-70
2022/06/14 01:29:38;;;;;;;4.68;1.40;;;15.50;99.90;;;;;;4094487;28;20110;-69
2022/06/14 01:31:39;;;;;;;2.72;0.82;;;15.50;99.90;;;;;;4095327;28;20507;-70
2022/06/14 01:33:44;;;;;;;4.55;1.10;;;15.50;99.90;;;;;;4097765;28;20035;-69
2022/06/14 01:35:50;;;;;;;3.38;1.23;;;15.50;99.90;;;;;;4095596;28;20506;-70
2022/06/14 01:37:54;;;;;;;8.15;1.10;;;15.50;99.90;;;;;;4095631;28;20486;-69
2022/06/14 01:39:56;;;;;;;5.20;1.30;;;15.40;99.80;;;;;;4094857;28;20043;-69
2022/06/14 01:42:08;;;;;;;2.40;0.82;;;15.30;99.20;;;;;;4095229;28;20041;-69
2022/06/14 01:44:46;;;;;;;2.27;0.90;;;15.30;99.90;;;;;;4094869;28;20031;-69
2022/06/14 01:47:15;;;;;;;5.80;0.95;;;15.30;99.90;;;;;;4090721;28;20118;-69
2022/06/14 01:51:53;;;;;;;1.52;1.02;;;15.20;99.90;;;;;;4097132;28;20372;-69
2022/06/14 01:54:14;;;;;;;3.35;1.33;;;15.10;99.90;;;;;;4101634;28;20035;-69
2022/06/14 01:56:37;;;;;;;4.57;1.20;;;15.20;99.90;;;;;;4095756;28;20109;-69
2022/06/14 01:59:03;;;;;;;3.30;1.20;;;15.20;99.90;;;;;;4097953;28;20398;-69
2022/06/14 02:01:09;;;;;;;2.85;1.25;;;15.10;99.90;;;;;;4097254;28;20028;-70
2022/06/14 02:06:03;;;;;;;4.22;1.50;;;15.10;99.90;;;;;;4097574;28;20043;-69
2022/06/14 02:08:09;;;;;;;1.90;1.08;;;15.00;99.90;;;;;;4097368;28;20031;-69
2022/06/14 02:10:19;;;;;;;4.68;1.52;;;15.00;99.90;;;;;;4096967;28;20085;-69
2022/06/14 02:12:29;;;;;;;4.35;1.38;;;15.10;99.90;;;;;;4098999;28;20475;-69
2022/06/14 02:14:59;;;;;;;3.20;1.25;;;15.10;99.90;;;;;;4097404;28;20039;-69
2022/06/14 02:17:33;;;;;;;1.90;1.13;;;15.10;99.90;;;;;;4097528;28;20105;-69
2022/06/14 02:19:48;;;;;;;4.63;1.25;;;15.00;99.90;;;;;;4096710;28;20050;-69
2022/06/14 02:21:56;;;;;;;4.05;1.20;;;15.00;99.90;;;;;;4097013;28;20031;-69
2022/06/14 02:24:31;;;;;;;3.50;1.40;;;15.00;99.90;;;;;;4097484;28;20035;-69
2022/06/14 02:26:36;;;;;;;3.33;1.38;;;14.90;99.90;;;;;;4093041;28;20031;-69
2022/06/14 02:29:07;;;;;;;2.30;1.13;;;15.00;99.90;;;;;;4097179;28;20045;-69
2022/06/14 02:31:13;;;;;;;2.38;1.10;;;14.90;99.90;;;;;;4074950;28;20098;-69
2022/06/14 02:33:25;;;;;;;2.50;0.98;;;14.90;99.90;;;;;;4094093;28;20045;-69
2022/06/14 02:35:32;;;;;;;3.03;1.38;;;15.00;99.90;;;;;;4097859;28;20035;-69
2022/06/14 02:37:44;;;;;;;3.40;1.38;;;14.90;99.90;;;;;;4096075;29;20490;-69
2022/06/14 02:39:55;;;;;;;4.00;1.40;;;15.00;99.90;;;;;;4095120;28;20039;-69
2022/06/14 02:42:04;;;;;;;3.25;1.42;;;14.90;99.90;;;;;;4097060;28;20035;-69
2022/06/14 02:44:31;;;;;;;3.08;1.30;;;14.90;99.90;;;;;;4096505;28;20098;-69
2022/06/14 02:46:42;;;;;;;3.50;1.17;;;14.80;99.90;;;;;;4091977;28;20075;-69
2022/06/14 02:48:52;;;;;;;2.63;1.20;;;14.80;99.90;;;;;;4096231;28;20048;-69
2022/06/14 02:50:58;;;;;;;2.33;1.20;;;14.80;99.90;;;;;;4094663;28;20027;-69
2022/06/14 02:53:08;;;;;;;3.38;1.45;;;14.70;99.90;;;;;;4097455;28;20486;-69
2022/06/14 02:55:27;;;;;;;4.85;1.45;;;14.70;99.90;;;;;;4096576;28;20050;-70
2022/06/14 02:57:56;;;;;;;3.55;1.30;;;14.70;99.90;;;;;;4096613;29;20031;-69
2022/06/14 03:00:15;;;;;;;3.05;1.20;;;14.70;99.90;;;;;;4096471;28;20032;-69
2022/06/14 03:02:33;;;;;;;4.20;1.30;;;14.70;99.90;;;;;;4095058;28;20039;-69
2022/06/14 03:04:56;;;;;;;6.80;1.30;;;14.60;99.90;;;;;;4096055;28;20043;-69
2022/06/14 03:07:15;;;;;;;2.38;1.15;;;14.60;99.90;;;;;;4095594;28;20039;-69
2022/06/14 03:09:19;;;;;;;3.13;1.10;;;14.60;99.90;;;;;;4095037;28;20058;-69
2022/06/14 03:11:57;;;;;;;2.42;0.80;;;14.50;99.90;;;;;;4096027;28;20395;-69
2022/06/14 03:14:31;;;;;;;3.63;1.30;;;14.50;99.90;;;;;;4096657;28;20554;-69
2022/06/14 03:17:05;;;;;;;2.22;1.20;;;14.50;99.90;;;;;;4095743;28;20039;-68
2022/06/14 03:19:18;;;;;;;2.60;1.20;;;14.40;99.90;;;;;;4084737;28;20027;-69
2022/06/14 03:21:26;;;;;;;1.65;0.85;;;14.40;99.90;;;;;;4095714;28;20034;-69
2022/06/14 03:23:42;;;;;;;3.67;1.50;;;14.40;99.90;;;;;;4096678;28;20039;-69
2022/06/14 03:26:00;;;;;;;5.75;1.40;;;14.40;99.90;;;;;;4096021;28;20039;-69
2022/06/14 03:28:06;;;;;;;1.95;1.02;;;14.30;99.90;;;;;;4096082;28;20035;-69
2022/06/14 03:30:25;;;;;;;4.18;1.40;;;14.30;99.90;;;;;;4095893;28;20398;-69
2022/06/14 03:32:49;;;;;;;3.45;1.30;;;14.40;99.90;;;;;;4096481;28;20035;-69
2022/06/14 03:34:55;;;;;;;3.42;1.50;;;14.30;99.90;;;;;;4082635;29;20031;-69
2022/06/14 03:36:56;;;;;;;3.58;1.42;;;14.30;99.90;;;;;;4096653;28;20042;-69
2022/06/14 03:39:03;;;;;;;2.80;1.48;;;14.30;99.90;;;;;;4096636;28;20039;-69
2022/06/14 03:41:06;;;;;;;2.58;1.27;;;14.30;99.90;;;;;;4095290;28;20027;-69
2022/06/14 03:43:07;;;;;;;2.00;1.10;;;14.30;99.90;;;;;;4097385;28;20054;-69
2022/06/14 03:45:12;;;;;;;2.38;1.40;;;14.30;99.90;;;;;;4096763;28;20486;-69
2022/06/14 03:47:25;;;;;;;2.83;1.17;;;14.30;99.90;;;;;;4096301;28;20561;-69
2022/06/14 03:49:26;;;;;;;2.42;1.10;;;14.30;99.90;;;;;;4094965;28;20098;-69
2022/06/14 03:51:51;;;;;;;6.68;2.17;;;14.30;99.90;;;;;;4095656;28;20042;-69
2022/06/14 03:53:58;;;;;;;3.40;1.67;;;14.30;99.90;;;;;;4085373;28;20048;-68
2022/06/14 03:56:39;;;;;;;4.30;1.60;;;14.30;99.90;;;;;;4092839;28;20032;-68
2022/06/14 03:58:51;;;;;;;3.33;1.65;;;14.30;99.90;;;;;;4093686;28;20035;-69
2022/06/14 04:01:08;;;;;;;4.03;1.33;;;14.30;99.90;;;;;;4092639;28;20542;-69
2022/06/14 04:03:11;;;;;;;3.25;1.50;;;14.30;99.90;;;;;;4095895;28;20043;-69
2022/06/14 04:05:19;;;;;;;4.35;1.70;;;14.30;99.90;;;;;;4089785;28;20045;-70
2022/06/14 04:07:32;;;;;;;2.58;1.35;;;14.30;99.90;;;;;;4095950;28;20039;-69
2022/06/14 04:09:51;;;;;;;3.72;1.70;;;14.30;99.90;;;;;;4095091;28;20044;-68
2022/06/14 04:12:14;;;;;;;2.88;1.50;;;14.30;99.90;;;;;;4095738;28;20110;-69
2022/06/14 04:14:31;;;;;;;4.05;1.45;;;14.30;99.90;;;;;;4088123;28;20043;-69
2022/06/14 04:16:50;;;;;;;2.67;1.40;;;14.30;99.90;;;;;;4092818;28;20035;-69
2022/06/14 04:19:13;;;;;;;2.78;1.38;;;14.30;99.90;;;;;;4091784;28;20073;-68
2022/06/14 04:21:40;;;;;;;3.47;1.75;;;14.30;99.90;;;;;;4095236;28;20032;-68
2022/06/14 04:23:45;;;;;;;4.28;1.70;;;14.30;99.90;;;;;;4097757;28;20062;-69
2022/06/14 04:26:07;;;;;;;4.47;1.40;;;14.30;99.90;;;;;;4095982;28;20395;-69
2022/06/14 04:28:28;;;;;;;3.90;1.63;;;14.30;99.90;;;;;;4095184;28;20089;-69
2022/06/14 04:30:38;;;;;;;5.65;1.67;;;14.30;99.90;;;;;;4095522;28;20114;-69
2022/06/14 04:32:53;;;;;;;3.22;1.60;;;14.30;99.90;;;;;;4094321;28;20047;-69
2022/06/14 04:35:03;;;;;;;5.50;1.75;;;14.30;99.90;;;;;;4092424;28;20067;-69
2022/06/14 04:37:33;;;;;;;4.80;1.70;;;14.30;99.90;;;;;;4093484;28;20130;-69
2022/06/14 04:39:43;;;;;;;3.45;1.52;;;14.20;99.90;;;;;;4092426;28;20102;-69
2022/06/14 04:41:51;;;;;;;2.55;1.42;;;14.30;99.90;;;;;;4094576;28;20059;-69
2022/06/14 04:44:05;;;;;;;3.75;1.50;;;14.30;99.90;;;;;;4095328;28;20035;-69
2022/06/14 04:46:19;;;;;;;4.43;1.98;;;14.20;99.90;;;;;;4092723;28;20447;-69
2022/06/14 04:48:45;;;;;;;5.82;1.95;;;14.20;99.90;;;;;;4094357;28;20066;-69
2022/06/14 04:50:56;;;;;;;5.03;1.67;;;14.30;99.90;;;;;;4070185;28;20031;-69
2022/06/14 04:53:06;;;;;;;4.22;1.75;;;14.20;99.90;;;;;;4098627;28;20032;-69
2022/06/14 04:55:18;;;;;;;4.95;2.35;;;14.20;99.90;;;;;;4095670;28;20039;-69
2022/06/14 04:57:43;;;;;;;3.85;1.75;;;14.30;99.90;;;;;;4086496;29;20042;-69
2022/06/14 04:59:55;;;;;;;5.38;1.98;;;14.30;99.90;;;;;;4092541;28;20066;-69
2022/06/14 05:02:06;;;;;;;2.75;1.80;;;14.30;99.90;;;;;;4094995;28;20110;-69
2022/06/14 05:04:21;;;;;;;5.68;2.15;;;14.30;99.90;;;;;;4092860;28;20082;-68
2022/06/14 05:06:58;;;;;;;3.55;1.80;;;14.30;99.90;;;;;;4095500;28;21024;-69
2022/06/14 05:09:09;;;;;;;6.15;2.08;;;14.40;99.90;;;;;;4092726;28;20024;-69
2022/06/14 05:11:42;;;;;;;2.88;1.67;;;14.50;99.90;;;;;;4082079;29;20110;-69
2022/06/14 05:14:01;;;;;;;4.68;1.63;;;14.50;99.90;;;;;;4094834;28;20043;-69
2022/06/14 05:16:10;;;;;;;5.28;1.98;;;14.60;99.90;;;;;;4097675;28;20058;-69
2022/06/14 05:18:20;;;;;;;5.97;1.90;;;14.60;99.90;;;;;;4094722;28;20039;-69
2022/06/14 05:20:39;;;;;;;4.68;2.00;;;14.70;99.90;;;;;;4091730;28;20101;-72
2022/06/14 05:23:01;;;;;;;6.22;1.98;;;14.70;99.90;;;;;;4087329;28;20038;-72
2022/06/14 05:25:05;;;;;;;4.78;1.65;;;14.80;99.90;;;;;;4089191;28;20043;-72
2022/06/14 05:27:27;;;;;;;5.97;2.08;;;14.80;99.90;;;;;;4091468;28;20127;-72
2022/06/14 05:29:39;;;;;;;4.35;2.10;;;14.90;99.90;;;;;;4090267;28;20027;-72
2022/06/14 05:32:19;;;;;;;5.97;2.20;;;15.00;99.90;;;;;;4091392;28;20028;-72
2022/06/14 05:35:05;;;;;;;4.07;2.20;;;15.00;99.90;;;;;;4090685;28;20023;-72
2022/06/14 05:37:31;;;;;;;5.97;2.33;;;15.10;99.90;;;;;;4066321;28;20031;-72
2022/06/14 05:39:48;;;;;;;9.90;2.70;;;15.10;99.90;;;;;;4090625;28;20028;-72
2022/06/14 05:42:00;;;;;;;4.05;2.00;;;15.20;99.90;;;;;;4090991;28;20026;-72
2022/06/14 05:44:08;;;;;;;6.37;2.10;;;15.30;99.90;;;;;;4091832;28;20031;-72
2022/06/14 05:46:17;;;;;;;5.10;2.13;;;15.30;99.90;;;;;;4091523;28;20046;-72
2022/06/14 05:48:32;;;;;;;6.75;2.13;;;15.50;99.90;;;;;;4075884;29;20035;-72
2022/06/14 05:50:43;;;;;;;5.90;2.40;;;15.80;99.90;;;;;;4073824;28;20043;-72
2022/06/14 05:52:55;;;;;;;6.97;2.13;;;16.20;99.90;;;;;;4091458;28;20407;-72
2022/06/14 05:54:58;;;;;;;4.00;1.73;;;16.60;99.90;;;;;;4092023;28;20039;-72
2022/06/14 05:57:18;;;;;;;9.15;2.75;;;17.00;99.90;;;;;;4091519;28;20058;-72
2022/06/14 05:59:46;;;;;;;9.00;2.72;;;17.50;99.90;;;;;;4091046;28;20035;-73
2022/06/14 06:02:12;;;;;;;7.72;2.17;;;18.00;99.90;;;;;;4090233;28;20050;-73
2022/06/14 06:04:40;;;;;;;5.35;2.00;;;18.50;99.90;;;;;;4077702;29;20040;-72
2022/06/14 06:06:51;;;;;;;4.80;1.85;;;19.00;99.90;;;;;;4091559;28;20136;-73
2022/06/14 06:08:57;;;;;;;6.22;2.20;;;19.40;99.90;;;;;;4077084;29;20062;-72
2022/06/14 06:11:09;;;;;;;6.95;1.70;;;19.80;99.90;;;;;;4090569;28;20039;-73
2022/06/14 06:13:30;;;;;;;7.82;2.28;;;20.10;99.90;;;;;;4091663;28;20047;-73
2022/06/14 06:15:48;;;;;;;6.47;2.25;;;20.50;99.90;;;;;;4091082;28;20623;-73
2022/06/14 06:18:01;;;;;;;5.18;1.80;;;20.80;99.90;;;;;;4090234;28;20446;-73
2022/06/14 06:20:15;;;;;;;10.25;2.17;;;21.20;99.90;;;;;;4088420;28;20039;-72
2022/06/14 06:22:22;;;;;;;5.65;2.25;;;21.20;94.10;;;;;;4091255;28;20399;-74
2022/06/14 06:24:27;;;;;;;4.13;1.63;;;21.10;95.10;;;;;;4092446;28;20035;-73
2022/06/14 06:26:32;;;;;;;5.80;2.35;;;21.40;97.50;;;;;;4090715;28;20054;-71
2022/06/14 06:28:38;;;;;;;7.03;2.15;;;21.50;94.00;;;;;;4077748;29;20468;-73
2022/06/14 06:30:44;;;;;;;6.38;1.70;;;21.60;96.30;;;;;;4088015;28;20043;-72
2022/06/14 06:32:46;;;;;;;6.70;2.10;;;21.80;98.70;;;;;;4089611;28;20107;-72
2022/06/14 06:34:49;;;;;;;3.80;1.60;;;21.90;97.70;;;;;;4074131;29;20028;-72
2022/06/14 06:37:04;;;;;;;4.55;1.67;;;22.00;95.00;;;;;;4090469;28;20097;-72
2022/06/14 06:39:14;;;;;;;3.25;1.48;;;22.10;95.70;;;;;;4091842;28;20387;-72
2022/06/14 06:43:40;;;;;;;4.85;2.05;;;22.10;94.80;;;;;;4076701;28;20042;-72
2022/06/14 06:45:45;;;;;;;6.00;1.80;;;22.00;96.60;;;;;;4091384;28;20045;-73
2022/06/14 06:48:02;;;;;;;4.80;1.83;;;22.10;97.20;;;;;;4091168;28;20995;-72
2022/06/14 06:50:21;;;;;;;5.25;1.40;;;22.00;94.80;;;;;;4090600;28;20095;-73
2022/06/14 06:52:33;;;;;;;4.97;1.50;;;21.80;94.60;;;;;;4090695;28;20062;-72
2022/06/14 06:54:51;;;;;;;5.70;1.67;;;21.70;97.50;;;;;;4090846;28;20062;-72
2022/06/14 06:56:57;;;;;;;6.05;1.70;;;21.70;94.80;;;;;;4091665;28;20031;-72
2022/06/14 06:59:17;;;;;;;4.85;1.88;;;21.60;95.00;;;;;;4090883;28;20098;-72
2022/06/14 07:01:25;;;;;;;4.50;1.88;;;21.50;95.30;;;;;;4084840;28;20047;-73
2022/06/14 07:03:44;;;;;;;5.70;2.00;;;21.60;96.50;;;;;;4094839;28;20487;-72
2022/06/14 07:05:52;;;;;;;6.43;1.85;;;21.60;96.80;;;;;;4093750;28;20059;-72
2022/06/14 07:08:10;;;;;;;6.20;1.80;;;21.60;96.10;;;;;;4094247;28;22224;-72
2022/06/14 07:10:10;;;;;;;2.70;1.20;;;21.60;96.10;;;;;;4093260;28;20047;-72
2022/06/14 07:12:19;;;;;;;5.97;1.83;;;21.70;95.60;;;;;;4094501;28;20028;-72
2022/06/14 07:14:41;;;;;;;4.57;1.60;;;21.80;96.10;;;;;;4094111;28;20031;-72
2022/06/14 07:17:06;;;;;;;7.45;2.38;;;21.80;95.60;;;;;;4093460;28;20041;-73
2022/06/14 07:19:31;;;;;;;6.05;1.88;;;21.80;95.60;;;;;;4092168;28;20031;-72
2022/06/14 07:21:38;;;;;;;5.47;1.90;;;21.70;96.60;;;;;;4092239;28;20038;-72
2022/06/14 07:23:52;;;;;;;14.73;2.15;;;21.80;94.40;;;;;;4093643;28;20039;-72
2022/06/14 07:26:02;;;;;;;6.00;1.48;;;21.90;96.00;;;;;;4093088;28;20055;-72
2022/06/14 07:28:12;;;;;;;6.43;1.77;;;21.90;94.40;;;;;;4092222;28;20043;-73
2022/06/14 07:30:22;;;;;;;5.10;1.63;;;22.00;94.70;;;;;;4076138;29;20036;-72
2022/06/14 07:32:27;;;;;;;5.90;1.55;;;22.00;92.80;;;;;;4092690;28;20047;-72
2022/06/14 07:34:28;;;;;;;8.05;1.80;;;22.10;92.50;;;;;;4093827;28;20054;-72
2022/06/14 07:36:59;;;;;;;3.67;1.58;;;22.10;90.20;;;;;;4093130;28;20031;-71
2022/06/14 07:39:24;;;;;;;6.35;2.15;;;22.10;90.60;;;;;;4093323;28;20110;-72
2022/06/14 07:41:48;;;;;;;4.57;1.67;;;22.00;90.90;;;;;;4091645;28;20035;-72
2022/06/14 07:44:26;;;;;;;7.57;1.70;;;22.00;92.00;;;;;;4093242;28;20775;-70
2022/06/14 07:46:32;;;;;;;5.65;1.67;;;22.00;92.60;;;;;;4093448;28;20127;-71
2022/06/14 07:48:46;;;;;;;4.97;1.25;;;21.90;92.70;;;;;;4093273;28;20031;-72
2022/06/14 07:50:53;;;;;;;4.63;1.67;;;21.90;92.60;;;;;;4092305;28;20046;-72
2022/06/14 07:53:09;;;;;;;6.78;1.83;;;21.90;92.10;;;;;;4092929;28;20522;-72
2022/06/14 07:55:21;;;;;;;4.38;1.35;;;21.90;92.10;;;;;;4092571;28;20576;-72
2022/06/14 07:57:27;;;;;;;3.30;1.20;;;22.00;90.10;;;;;;4093188;28;20038;-72
2022/06/14 07:59:33;;;;;;;3.38;1.40;;;22.00;90.40;;;;;;4093612;28;20118;-72
2022/06/14 08:01:37;;;;;;;2.95;1.50;;;22.00;90.50;;;;;;4091661;28;20125;-72
2022/06/14 08:03:58;;;;;;;4.45;1.60;;;22.00;90.00;;;;;;4095146;28;20118;-72
2022/06/14 08:06:03;;;;;;;6.22;1.60;;;22.00;90.20;;;;;;4093164;28;20035;-72
2022/06/14 08:08:07;;;;;;;5.82;1.50;;;22.00;84.10;;;;;;4092504;28;20039;-71
2022/06/14 08:10:24;;;;;;;4.32;1.35;;;21.90;87.30;;;;;;4092238;28;20043;-72
2022/06/14 08:12:32;;;;;;;5.45;1.80;;;21.90;87.20;;;;;;4093076;28;20488;-72
2022/06/14 08:14:46;;;;;;;6.63;1.80;;;21.80;87.20;;;;;;4091719;28;20035;-72
2022/06/14 08:16:49;;;;;;;5.38;1.25;;;21.80;88.20;;;;;;4092199;28;20043;-72
2022/06/14 08:18:57;;;;;;;4.65;1.52;;;21.80;89.10;;;;;;4074693;29;20044;-72
2022/06/14 08:21:05;;;;;;;4.53;1.70;;;21.70;85.10;;;;;;4089972;28;20046;-72
2022/06/14 08:23:13;;;;;;;3.40;1.23;;;21.80;89.00;;;;;;4092275;28;20415;-71
2022/06/14 08:25:22;;;;;;;4.30;1.52;;;21.70;84.20;;;;;;4091723;28;20055;-72
2022/06/14 08:27:34;;;;;;;6.78;1.90;;;21.50;85.90;;;;;;4091949;28;20031;-72
2022/06/14 08:29:52;;;;;;;4.32;1.73;;;21.40;84.70;;;;;;4090556;28;20147;-72
2022/06/14 08:32:01;;;;;;;7.60;1.77;;;21.30;84.30;;;;;;4090657;28;20489;-72
2022/06/14 08:34:13;;;;;;;4.97;1.50;;;21.10;84.20;;;;;;4092737;28;20028;-72
2022/06/14 08:36:21;;;;;;;7.97;1.48;;;21.10;88.00;;;;;;4095840;28;20042;-72
2022/06/14 08:38:29;;;;;;;4.95;1.88;;;21.10;86.50;;;;;;4092343;28;20039;-72
2022/06/14 08:40:46;;;;;;;5.63;1.50;;;21.00;89.50;;;;;;4092082;28;20110;-72
2022/06/14 08:43:03;;;;;;;3.33;1.20;;;21.10;92.10;;;;;;4090814;28;20619;-71
2022/06/14 08:45:17;;;;;;;4.20;1.20;;;21.20;89.50;;;;;;4092183;28;20030;-73
2022/06/14 08:47:33;;;;;;;6.10;1.55;;;21.30;89.70;;;;;;4092586;28;20498;-72
2022/06/14 08:49:58;;;;;;;3.22;1.33;;;21.30;90.40;;;;;;4089504;28;20151;-72
2022/06/14 08:52:40;;;;;;;4.47;1.33;;;21.40;83.90;;;;;;4092156;28;20035;-72
2022/06/14 08:55:03;;;;;;;5.45;1.60;;;21.40;84.30;;;;;;4090831;28;20063;-72
2022/06/14 08:57:27;;;;;;;6.78;1.70;;;21.10;86.20;;;;;;4091711;28;20131;-72
2022/06/14 08:59:42;;;;;;;3.53;1.10;;;20.90;82.60;;;;;;4091288;28;20081;-72
2022/06/14 09:02:01;;;;;;;4.05;1.35;;;21.10;85.90;;;;;;4091717;28;20027;-72
2022/06/14 09:04:10;;;;;;;7.35;1.73;;;21.20;91.40;;;;;;4090133;28;20510;-69
2022/06/14 09:06:50;;;;;;;4.50;1.35;;;21.40;91.10;;;;;;4090839;28;20051;-71
2022/06/14 09:09:25;;;;;;;4.40;1.58;;;21.50;90.00;;;;;;4077002;28;20539;-71
2022/06/14 09:12:07;;;;;;;6.32;1.60;;;21.70;90.90;;;;;;4091042;28;20078;-72
2022/06/14 09:14:42;;;;;;;4.10;1.03;;;21.70;86.90;;;;;;4065940;29;20036;-71
2022/06/14 09:17:23;;;;;;;3.00;1.10;;;21.80;86.90;;;;;;4077469;29;20048;-72
2022/06/14 09:19:35;;;;;;;5.50;1.65;;;22.00;87.90;;;;;;4090020;28;20027;-72
2022/06/14 09:22:03;;;;;;;5.20;1.42;;;22.00;85.80;;;;;;4090034;28;20145;-72
2022/06/14 09:24:26;;;;;;;5.28;1.48;;;22.10;89.60;;;;;;4092292;28;20024;-71
2022/06/14 09:26:29;;;;;;;;;;;22.10;87.70;;;;;;4092173;28;20149;-72
2022/06/14 09:29:13;;;;;;;3.55;1.08;;;22.20;87.00;;;;;;4091372;28;19929;-71
2022/06/14 09:31:17;;;;;;;6.88;1.58;;;22.20;87.00;;;;;;4087139;28;20402;-71
2022/06/14 09:33:43;;;;;;;3.78;1.35;;;22.20;89.20;;;;;;4075796;29;20047;-72
2022/06/14 09:36:14;;;;;;;5.28;1.75;;;22.20;86.60;;;;;;4090893;28;20043;-72
2022/06/14 09:38:46;;;;;;;6.50;1.58;;;22.20;85.10;;;;;;4091209;28;20035;-72
2022/06/14 09:41:07;;;;;;;3.65;1.17;;;22.10;79.60;;;;;;4091640;28;20127;-72
2022/06/14 09:43:08;;;;;;;3.58;1.27;;;22.00;83.20;;;;;;4091076;28;20047;-72
2022/06/14 09:45:27;;;;;;;4.15;1.52;;;22.10;87.90;;;;;;4091661;28;20105;-74
2022/06/14 09:47:55;;;;;;;4.53;1.35;;;22.10;85.10;;;;;;4091444;28;20035;-72
2022/06/14 09:50:25;;;;;;;4.78;1.60;;;22.20;85.20;;;;;;4090140;28;20032;-71
2022/06/14 09:52:44;;;;;;;3.20;1.10;;;22.00;79.70;;;;;;4082260;28;20039;-72
2022/06/14 09:54:57;;;;;;;3.38;1.25;;;22.00;81.50;;;;;;4090667;28;20047;-71
2022/06/14 09:57:14;;;;;;;4.88;1.15;;;22.00;80.80;;;;;;4090836;28;20147;-72
2022/06/14 09:59:51;;;;;;;4.53;1.52;;;22.00;81.20;;;;;;4091499;28;20043;-72
2022/06/14 10:02:17;;;;;;;4.45;1.30;;;21.90;78.70;;;;;;4091093;28;20035;-72
2022/06/14 10:04:36;;;;;;;3.15;0.95;;;22.00;79.90;;;;;;4091223;28;20059;-72
2022/06/14 10:07:08;;;;;;;3.13;1.20;;;22.00;79.30;;;;;;4074577;29;20047;-72
2022/06/14 10:09:19;;;;;;;3.30;1.05;;;22.00;78.50;;;;;;4090554;28;20045;-72
2022/06/14 10:11:36;;;;;;;6.53;1.00;;;22.00;78.30;;;;;;4090882;28;20047;-71
2022/06/14 10:13:46;;;;;;;3.80;1.33;;;22.00;76.90;;;;;;4093479;28;20031;-72
2022/06/14 10:16:09;;;;;;;5.88;1.70;;;22.20;85.40;;;;;;4094297;28;20027;-72
2022/06/14 10:18:25;;;;;;;5.88;1.65;;;22.10;78.00;;;;;;4094388;28;20088;-72
2022/06/14 10:20:38;;;;;;;3.00;1.27;;;22.20;81.50;;;;;;4091813;28;20130;-72
2022/06/14 10:22:48;;;;;;;;;;;22.20;79.40;;;;;;4094574;28;20079;-72
2022/06/14 10:25:00;;;;;;;2.25;0.88;;;22.20;77.80;;;;;;4095171;28;19918;-71
2022/06/14 10:30:01;;;;;;;3.97;1.02;;;22.20;77.40;;;;;;4092925;28;20085;-72
2022/06/14 10:32:19;;;;;;;3.53;1.30;;;22.30;84.90;;;;;;4093764;28;20027;-72
2022/06/14 10:34:29;;;;;;;5.60;1.52;;;22.40;75.90;;;;;;4094313;28;20038;-72
2022/06/14 10:36:38;;;;;;;4.38;1.40;;;22.30;76.40;;;;;;4092966;28;20042;-73
2022/06/14 10:39:07;;;;;;;3.20;0.93;;;22.10;72.30;;;;;;4091286;28;20039;-72
2022/06/14 10:41:24;;;;;;;3.03;1.02;;;22.00;73.10;;;;;;4091477;28;20039;-72
2022/06/14 10:43:38;;;;;;;2.70;1.00;;;22.10;74.90;;;;;;4094821;28;20046;-72
2022/06/14 10:45:57;;;;;;;3.53;0.85;;;22.00;73.20;;;;;;4093889;28;20126;-72
2022/06/14 10:48:19;;;;;;;3.45;1.20;;;22.10;75.60;;;;;;4094426;28;20043;-71
2022/06/14 10:50:19;;;;;;;3.25;0.90;;;22.10;73.70;;;;;;4092708;28;20102;-72
2022/06/14 10:52:43;;;;;;;3.92;1.40;;;22.10;72.20;;;;;;4094334;28;20039;-72
2022/06/14 10:55:09;;;;;;;4.00;1.23;;;22.20;73.30;;;;;;4093779;28;20055;-72
2022/06/14 10:57:54;;;;;;;6.75;1.70;;;22.20;73.20;;;;;;4092766;28;20225;-72
2022/06/14 11:00:16;;;;;;;7.07;1.40;;;21.80;70.40;;;;;;4076936;29;20549;-72
2022/06/14 11:02:54;;;;;;;5.28;1.35;;;21.90;72.50;;;;;;4094564;28;20050;-72
2022/06/14 11:05:08;;;;;;;3.35;1.30;;;21.60;70.70;;;;;;4089987;28;20036;-73
2022/06/14 11:07:25;;;;;;;5.00;1.25;;;21.80;72.70;;;;;;4094671;28;20047;-73
2022/06/14 11:09:52;;;;;;;5.05;1.50;;;21.90;78.20;;;;;;4094233;28;20043;-73
2022/06/14 11:12:05;;;;;;;2.38;1.15;;;22.00;81.20;;;;;;4088932;28;20039;-72
2022/06/14 11:14:30;;;;;;;5.18;1.63;;;22.10;82.50;;;;;;4093690;28;20526;-73
2022/06/14 11:17:18;;;;;;;2.75;1.00;;;22.10;74.00;;;;;;4094264;28;20068;-72
2022/06/14 11:19:37;;;;;;;6.38;1.65;;;22.30;78.70;;;;;;4061836;29;20483;-72
2022/06/14 11:22:05;;;;;;;3.95;1.75;;;22.30;76.20;;;;;;4085458;28;20050;-73
2022/06/14 11:24:27;;;;;;;4.40;1.83;;;22.50;79.30;;;;;;4094989;28;20035;-73
2022/06/14 11:26:41;;;;;;;2.45;1.17;;;22.50;79.30;;;;;;4093668;28;20468;-72
2022/06/14 11:28:55;;;;;;;5.45;1.42;;;22.60;73.80;;;;;;4092369;28;20047;-72
2022/06/14 11:31:23;;;;;;;4.32;1.20;;;22.70;78.10;;;;;;4092260;28;20038;-72
2022/06/14 11:33:50;;;;;;;2.33;1.00;;;22.80;76.70;;;;;;4094152;28;20031;-72
2022/06/14 11:36:06;;;;;;;5.35;1.17;;;22.90;75.30;;;;;;4091987;28;20086;-72
2022/06/14 11:38:15;;;;;;;4.13;1.13;;;22.90;71.50;;;;;;4075343;29;20066;-72
2022/06/14 11:40:48;;;;;;;4.18;1.27;;;22.90;74.40;;;;;;4093019;28;20069;-73
2022/06/14 11:42:55;;;;;;;2.88;1.00;;;22.90;74.70;;;;;;4092040;28;20503;-72
2022/06/14 11:45:23;;;;;;;3.30;1.23;;;22.90;69.80;;;;;;4094280;28;20039;-73
2022/06/14 11:47:45;;;;;;;4.32;1.25;;;22.80;69.90;;;;;;4092752;28;20451;-73
2022/06/14 11:50:19;;;;;;;4.88;1.30;;;22.80;71.30;;;;;;4092600;28;20050;-73
2022/06/14 11:52:47;;;;;;;5.15;1.48;;;22.80;71.70;;;;;;4093107;28;20039;-72
2022/06/14 11:55:20;;;;;;;6.47;1.70;;;22.80;75.20;;;;;;4092478;28;20201;-72